sensor_id;sensor_type;location;lat;lon;timestamp;P1;P2;P0
69736;PMS5003;60097;55.004;73.344;2022-09-09T00:07:43;11.15;3.83;
69736;PMS5003;60097;55.004;73.344;2022-09-09T00:10:28;14.02;4.22;
69736;PMS5003;60097;55.004;73.344;2022-09-09T00:21:53;8.60;4.60;
69736;PMS5003;60097;55.004;73.344;2022-09-09T00:24:55;17.77;5.03;
69736;PMS5003;60097;55.004;73.344;2022-09-09T00:27:49;16.77;4.57;
69736;PMS5003;60097;55.004;73.344;2022-09-09T00:30:17;16.52;3.70;
69736;PMS5003;60097;55.004;73.344;2022-09-09T00:32:49;7.07;4.05;
69736;PMS5003;60097;55.004;73.344;2022-09-09T00:35:18;9.95;4.53;
69736;PMS5003;60097;55.004;73.344;2022-09-09T00:37:57;15.63;4.38;
69736;PMS5003;60097;55.004;73.344;2022-09-09T00:40:28;23.83;5.30;
69736;PMS5003;60097;55.004;73.344;2022-09-09T00:48:28;14.10;5.10;
69736;PMS5003;60097;55.004;73.344;2022-09-09T00:57:30;15.65;4.80;
69736;PMS5003;60097;55.004;73.344;2022-09-09T01:09:54;23.13;4.72;
69736;PMS5003;60097;55.004;73.344;2022-09-09T01:12:38;10.93;4.50;
69736;PMS5003;60097;55.004;73.344;2022-09-09T01:20:20;10.20;4.67;
69736;PMS5003;60097;55.004;73.344;2022-09-09T01:23:19;16.42;4.38;
69736;PMS5003;60097;55.004;73.344;2022-09-09T01:29:25;22.52;5.80;
69736;PMS5003;60097;55.004;73.344;2022-09-09T01:31:57;22.47;7.07;
69736;PMS5003;60097;55.004;73.344;2022-09-09T01:37:52;12.95;4.55;
69736;PMS5003;60097;55.004;73.344;2022-09-09T01:40:19;23.02;5.55;
69736;PMS5003;60097;55.004;73.344;2022-09-09T01:42:48;20.92;5.22;
69736;PMS5003;60097;55.004;73.344;2022-09-09T01:45:14;22.95;5.75;
69736;PMS5003;60097;55.004;73.344;2022-09-09T01:47:41;28.98;5.68;
69736;PMS5003;60097;55.004;73.344;2022-09-09T01:50:46;14.38;5.07;
69736;PMS5003;60097;55.004;73.344;2022-09-09T01:53:19;18.63;5.20;
69736;PMS5003;60097;55.004;73.344;2022-09-09T01:59:17;27.98;6.00;
69736;PMS5003;60097;55.004;73.344;2022-09-09T02:04:55;57.35;31.08;
69736;PMS5003;60097;55.004;73.344;2022-09-09T02:10:31;23.80;6.00;
69736;PMS5003;60097;55.004;73.344;2022-09-09T02:13:19;31.88;7.50;
69736;PMS5003;60097;55.004;73.344;2022-09-09T02:15:56;28.50;7.30;
69736;PMS5003;60097;55.004;73.344;2022-09-09T02:22:06;22.67;5.22;
69736;PMS5003;60097;55.004;73.344;2022-09-09T02:24:37;10.45;5.45;
69736;PMS5003;60097;55.004;73.344;2022-09-09T02:27:31;18.70;5.75;
69736;PMS5003;60097;55.004;73.344;2022-09-09T02:30:04;17.55;5.35;
69736;PMS5003;60097;55.004;73.344;2022-09-09T02:32:37;18.95;5.50;
69736;PMS5003;60097;55.004;73.344;2022-09-09T02:35:15;18.10;5.03;
69736;PMS5003;60097;55.004;73.344;2022-09-09T02:37:47;39.97;6.30;
69736;PMS5003;60097;55.004;73.344;2022-09-09T02:43:37;36.90;9.88;
69736;PMS5003;60097;55.004;73.344;2022-09-09T02:53:22;9.15;4.90;
69736;PMS5003;60097;55.004;73.344;2022-09-09T02:55:57;28.23;14.93;
69736;PMS5003;60097;55.004;73.344;2022-09-09T02:58:37;20.23;5.07;
69736;PMS5003;60097;55.004;73.344;2022-09-09T03:01:09;27.58;4.85;
69736;PMS5003;60097;55.004;73.344;2022-09-09T03:03:36;20.10;4.53;
69736;PMS5003;60097;55.004;73.344;2022-09-09T03:06:07;17.60;4.55;
69736;PMS5003;60097;55.004;73.344;2022-09-09T03:08:39;26.17;8.38;
69736;PMS5003;60097;55.004;73.344;2022-09-09T03:11:29;29.10;4.60;
69736;PMS5003;60097;55.004;73.344;2022-09-09T03:13:57;42.25;28.35;
69736;PMS5003;60097;55.004;73.344;2022-09-09T03:16:25;15.65;4.50;
69736;PMS5003;60097;55.004;73.344;2022-09-09T03:19:04;38.15;5.50;
69736;PMS5003;60097;55.004;73.344;2022-09-09T03:21:32;21.15;5.10;
69736;PMS5003;60097;55.004;73.344;2022-09-09T03:23:59;21.92;4.25;
69736;PMS5003;60097;55.004;73.344;2022-09-09T03:26:25;14.75;3.72;
69736;PMS5003;60097;55.004;73.344;2022-09-09T03:29:34;25.65;9.45;
69736;PMS5003;60097;55.004;73.344;2022-09-09T03:32:03;16.60;6.05;
69736;PMS5003;60097;55.004;73.344;2022-09-09T03:34:30;117.80;8.73;
69736;PMS5003;60097;55.004;73.344;2022-09-09T03:36:58;22.00;4.30;
69736;PMS5003;60097;55.004;73.344;2022-09-09T03:39:27;22.42;3.35;
69736;PMS5003;60097;55.004;73.344;2022-09-09T03:42:05;12.05;6.20;
69736;PMS5003;60097;55.004;73.344;2022-09-09T03:44:42;21.20;4.75;
69736;PMS5003;60097;55.004;73.344;2022-09-09T03:47:09;14.73;3.95;
69736;PMS5003;60097;55.004;73.344;2022-09-09T03:49:46;13.68;4.28;
69736;PMS5003;60097;55.004;73.344;2022-09-09T03:52:12;14.60;4.73;
69736;PMS5003;60097;55.004;73.344;2022-09-09T03:54:39;23.42;8.07;
69736;PMS5003;60097;55.004;73.344;2022-09-09T03:57:10;19.05;5.70;
69736;PMS5003;60097;55.004;73.344;2022-09-09T03:59:36;30.10;5.40;
69736;PMS5003;60097;55.004;73.344;2022-09-09T04:02:04;12.85;5.43;
69736;PMS5003;60097;55.004;73.344;2022-09-09T04:04:41;27.13;4.65;
69736;PMS5003;60097;55.004;73.344;2022-09-09T04:07:07;39.10;7.30;
69736;PMS5003;60097;55.004;73.344;2022-09-09T04:09:34;12.60;4.75;
69736;PMS5003;60097;55.004;73.344;2022-09-09T04:12:01;13.77;3.35;
69736;PMS5003;60097;55.004;73.344;2022-09-09T04:14:33;11.77;5.15;
69736;PMS5003;60097;55.004;73.344;2022-09-09T04:17:00;12.90;3.42;
69736;PMS5003;60097;55.004;73.344;2022-09-09T04:19:26;11.52;3.30;
69736;PMS5003;60097;55.004;73.344;2022-09-09T04:21:53;21.15;2.40;
69736;PMS5003;60097;55.004;73.344;2022-09-09T04:24:22;20.23;4.78;
69736;PMS5003;60097;55.004;73.344;2022-09-09T04:26:50;32.00;5.93;
69736;PMS5003;60097;55.004;73.344;2022-09-09T04:29:16;13.48;3.03;
69736;PMS5003;60097;55.004;73.344;2022-09-09T04:31:43;11.30;2.30;
69736;PMS5003;60097;55.004;73.344;2022-09-09T04:34:10;8.52;2.08;
69736;PMS5003;60097;55.004;73.344;2022-09-09T04:36:36;8.50;2.10;
69736;PMS5003;60097;55.004;73.344;2022-09-09T04:39:05;2.63;1.70;
69736;PMS5003;60097;55.004;73.344;2022-09-09T04:41:41;10.85;1.85;
69736;PMS5003;60097;55.004;73.344;2022-09-09T04:44:09;8.52;1.95;
69736;PMS5003;60097;55.004;73.344;2022-09-09T04:46:36;17.60;1.80;
69736;PMS5003;60097;55.004;73.344;2022-09-09T04:49:05;6.10;4.10;
69736;PMS5003;60097;55.004;73.344;2022-09-09T04:51:33;6.68;1.70;
69736;PMS5003;60097;55.004;73.344;2022-09-09T04:53:59;11.68;2.08;
69736;PMS5003;60097;55.004;73.344;2022-09-09T04:56:29;8.50;1.88;
69736;PMS5003;60097;55.004;73.344;2022-09-09T04:58:58;6.53;1.63;
69736;PMS5003;60097;55.004;73.344;2022-09-09T05:01:50;12.13;2.30;
69736;PMS5003;60097;55.004;73.344;2022-09-09T05:04:16;14.40;3.20;
69736;PMS5003;60097;55.004;73.344;2022-09-09T05:06:44;4.95;2.88;
69736;PMS5003;60097;55.004;73.344;2022-09-09T05:09:12;5.80;1.80;
69736;PMS5003;60097;55.004;73.344;2022-09-09T05:11:39;4.55;1.70;
69736;PMS5003;60097;55.004;73.344;2022-09-09T05:14:25;8.82;1.75;
69736;PMS5003;60097;55.004;73.344;2022-09-09T05:17:24;11.70;1.60;
69736;PMS5003;60097;55.004;73.344;2022-09-09T05:20:04;8.80;5.91;
69736;PMS5003;60097;55.004;73.344;2022-09-09T05:22:31;7.15;1.65;
69736;PMS5003;60097;55.004;73.344;2022-09-09T05:25:04;2.82;1.42;
69736;PMS5003;60097;55.004;73.344;2022-09-09T05:27:31;2.58;1.40;
69736;PMS5003;60097;55.004;73.344;2022-09-09T05:30:04;20.75;13.77;
69736;PMS5003;60097;55.004;73.344;2022-09-09T05:32:35;16.08;4.75;
69736;PMS5003;60097;55.004;73.344;2022-09-09T05:35:04;132.35;4.85;
69736;PMS5003;60097;55.004;73.344;2022-09-09T05:37:43;20.75;10.32;
69736;PMS5003;60097;55.004;73.344;2022-09-09T05:40:12;19.45;7.22;
69736;PMS5003;60097;55.004;73.344;2022-09-09T05:42:49;6.70;1.75;
69736;PMS5003;60097;55.004;73.344;2022-09-09T05:45:26;9.80;2.38;
69736;PMS5003;60097;55.004;73.344;2022-09-09T05:47:53;15.10;1.88;
69736;PMS5003;60097;55.004;73.344;2022-09-09T05:50:19;9.15;1.90;
69736;PMS5003;60097;55.004;73.344;2022-09-09T05:52:46;8.20;1.85;
69736;PMS5003;60097;55.004;73.344;2022-09-09T05:55:13;4.17;2.70;
69736;PMS5003;60097;55.004;73.344;2022-09-09T05:57:41;2.45;1.75;
69736;PMS5003;60097;55.004;73.344;2022-09-09T06:00:40;14.57;7.72;
69736;PMS5003;60097;55.004;73.344;2022-09-09T06:03:08;12.88;2.17;
69736;PMS5003;60097;55.004;73.344;2022-09-09T06:05:37;16.55;5.80;
69736;PMS5003;60097;55.004;73.344;2022-09-09T06:08:04;6.05;1.92;
69736;PMS5003;60097;55.004;73.344;2022-09-09T06:10:36;6.10;1.77;
69736;PMS5003;60097;55.004;73.344;2022-09-09T06:13:02;9.05;1.60;
69736;PMS5003;60097;55.004;73.344;2022-09-09T06:15:30;15.17;2.27;
69736;PMS5003;60097;55.004;73.344;2022-09-09T06:17:57;7.35;1.55;
69736;PMS5003;60097;55.004;73.344;2022-09-09T06:20:35;19.52;9.38;
69736;PMS5003;60097;55.004;73.344;2022-09-09T06:23:07;11.80;5.20;
69736;PMS5003;60097;55.004;73.344;2022-09-09T06:25:43;12.65;2.45;
69736;PMS5003;60097;55.004;73.344;2022-09-09T06:28:15;4.65;2.40;
69736;PMS5003;60097;55.004;73.344;2022-09-09T06:30:43;8.52;2.60;
69736;PMS5003;60097;55.004;73.344;2022-09-09T06:36:22;11.75;2.45;
69736;PMS5003;60097;55.004;73.344;2022-09-09T06:38:53;10.25;1.90;
69736;PMS5003;60097;55.004;73.344;2022-09-09T06:41:25;9.82;2.05;
69736;PMS5003;60097;55.004;73.344;2022-09-09T06:43:55;1.80;1.67;
69736;PMS5003;60097;55.004;73.344;2022-09-09T06:47:03;8.95;2.30;
69736;PMS5003;60097;55.004;73.344;2022-09-09T06:49:36;7.55;1.80;
69736;PMS5003;60097;55.004;73.344;2022-09-09T06:59:11;4.65;1.88;
69736;PMS5003;60097;55.004;73.344;2022-09-09T07:01:44;9.80;1.65;
69736;PMS5003;60097;55.004;73.344;2022-09-09T07:04:21;9.00;2.00;
69736;PMS5003;60097;55.004;73.344;2022-09-09T07:06:55;6.07;1.88;
69736;PMS5003;60097;55.004;73.344;2022-09-09T07:09:25;14.25;3.30;
69736;PMS5003;60097;55.004;73.344;2022-09-09T07:11:56;8.02;2.22;
69736;PMS5003;60097;55.004;73.344;2022-09-09T07:14:26;20.27;2.72;
69736;PMS5003;60097;55.004;73.344;2022-09-09T07:16:58;11.25;4.00;
69736;PMS5003;60097;55.004;73.344;2022-09-09T07:19:30;6.20;2.40;
69736;PMS5003;60097;55.004;73.344;2022-09-09T07:22:06;5.87;1.77;
69736;PMS5003;60097;55.004;73.344;2022-09-09T07:24:34;11.00;1.92;
69736;PMS5003;60097;55.004;73.344;2022-09-09T07:27:00;3.25;1.92;
69736;PMS5003;60097;55.004;73.344;2022-09-09T07:29:29;10.05;1.90;
69736;PMS5003;60097;55.004;73.344;2022-09-09T07:31:57;3.53;1.50;
69736;PMS5003;60097;55.004;73.344;2022-09-09T07:37:01;9.30;2.20;
69736;PMS5003;60097;55.004;73.344;2022-09-09T07:39:29;6.63;1.80;
69736;PMS5003;60097;55.004;73.344;2022-09-09T07:41:56;6.00;2.50;
69736;PMS5003;60097;55.004;73.344;2022-09-09T07:47:23;8.90;2.13;
69736;PMS5003;60097;55.004;73.344;2022-09-09T07:49:53;17.20;2.33;
69736;PMS5003;60097;55.004;73.344;2022-09-09T07:52:25;3.63;1.67;
69736;PMS5003;60097;55.004;73.344;2022-09-09T07:55:04;19.03;2.13;
69736;PMS5003;60097;55.004;73.344;2022-09-09T07:57:32;6.30;2.28;
69736;PMS5003;60097;55.004;73.344;2022-09-09T08:00:04;16.02;2.95;
69736;PMS5003;60097;55.004;73.344;2022-09-09T08:02:45;10.85;2.38;
69736;PMS5003;60097;55.004;73.344;2022-09-09T08:05:28;6.47;2.40;
69736;PMS5003;60097;55.004;73.344;2022-09-09T08:07:55;12.68;1.90;
69736;PMS5003;60097;55.004;73.344;2022-09-09T08:10:21;5.32;1.65;
69736;PMS5003;60097;55.004;73.344;2022-09-09T08:12:50;24.02;2.40;
69736;PMS5003;60097;55.004;73.344;2022-09-09T08:15:18;11.15;2.20;
69736;PMS5003;60097;55.004;73.344;2022-09-09T08:17:45;7.05;1.83;
69736;PMS5003;60097;55.004;73.344;2022-09-09T08:20:12;7.63;2.00;
69736;PMS5003;60097;55.004;73.344;2022-09-09T08:23:12;8.93;1.92;
69736;PMS5003;60097;55.004;73.344;2022-09-09T08:25:41;15.50;3.07;
69736;PMS5003;60097;55.004;73.344;2022-09-09T08:28:11;16.88;2.10;
69736;PMS5003;60097;55.004;73.344;2022-09-09T08:30:38;39.50;3.88;
69736;PMS5003;60097;55.004;73.344;2022-09-09T08:33:10;19.95;2.40;
69736;PMS5003;60097;55.004;73.344;2022-09-09T08:35:37;6.97;2.00;
69736;PMS5003;60097;55.004;73.344;2022-09-09T08:38:11;15.60;2.05;
69736;PMS5003;60097;55.004;73.344;2022-09-09T08:40:40;12.23;2.00;
69736;PMS5003;60097;55.004;73.344;2022-09-09T08:43:20;25.38;3.08;
69736;PMS5003;60097;55.004;73.344;2022-09-09T08:45:50;18.45;2.60;
69736;PMS5003;60097;55.004;73.344;2022-09-09T08:51:02;11.45;3.22;
69736;PMS5003;60097;55.004;73.344;2022-09-09T08:56:47;12.95;2.00;
69736;PMS5003;60097;55.004;73.344;2022-09-09T08:59:16;10.23;1.95;
69736;PMS5003;60097;55.004;73.344;2022-09-09T09:01:50;14.52;2.70;
69736;PMS5003;60097;55.004;73.344;2022-09-09T09:13:29;23.02;2.72;
69736;PMS5003;60097;55.004;73.344;2022-09-09T09:19:15;49.90;3.90;
69736;PMS5003;60097;55.004;73.344;2022-09-09T09:21:54;23.80;4.38;
69736;PMS5003;60097;55.004;73.344;2022-09-09T09:25:21;10.55;2.20;
69736;PMS5003;60097;55.004;73.344;2022-09-09T09:31:48;15.13;2.08;
69736;PMS5003;60097;55.004;73.344;2022-09-09T09:34:24;32.17;3.30;
69736;PMS5003;60097;55.004;73.344;2022-09-09T09:36:58;9.18;2.47;
69736;PMS5003;60097;55.004;73.344;2022-09-09T09:39:32;10.02;2.40;
69736;PMS5003;60097;55.004;73.344;2022-09-09T09:42:09;11.60;2.40;
69736;PMS5003;60097;55.004;73.344;2022-09-09T09:44:41;2.25;2.05;
69736;PMS5003;60097;55.004;73.344;2022-09-09T09:49:56;10.18;2.45;
69736;PMS5003;60097;55.004;73.344;2022-09-09T09:56:10;4.97;2.45;
69736;PMS5003;60097;55.004;73.344;2022-09-09T09:58:50;5.13;2.45;
69736;PMS5003;60097;55.004;73.344;2022-09-09T10:01:31;7.00;2.67;
69736;PMS5003;60097;55.004;73.344;2022-09-09T10:04:19;14.98;2.63;
69736;PMS5003;60097;55.004;73.344;2022-09-09T10:06:51;7.93;2.85;
69736;PMS5003;60097;55.004;73.344;2022-09-09T10:38:46;16.27;6.45;
69736;PMS5003;60097;55.004;73.344;2022-09-09T10:55:11;11.47;4.03;
69736;PMS5003;60097;55.004;73.344;2022-09-09T11:00:44;17.98;3.05;
69736;PMS5003;60097;55.004;73.344;2022-09-09T11:03:17;39.25;4.13;
69736;PMS5003;60097;55.004;73.344;2022-09-09T11:08:20;19.83;4.05;
69736;PMS5003;60097;55.004;73.344;2022-09-09T11:19:02;16.42;3.67;
69736;PMS5003;60097;55.004;73.344;2022-09-09T11:24:38;12.30;3.08;
69736;PMS5003;60097;55.004;73.344;2022-09-09T11:27:15;13.77;3.72;
69736;PMS5003;60097;55.004;73.344;2022-09-09T11:30:02;8.90;3.13;
69736;PMS5003;60097;55.004;73.344;2022-09-09T11:33:27;8.17;3.60;
69736;PMS5003;60097;55.004;73.344;2022-09-09T11:36:32;17.23;3.22;
69736;PMS5003;60097;55.004;73.344;2022-09-09T11:48:00;15.15;2.90;
69736;PMS5003;60097;55.004;73.344;2022-09-09T11:50:33;5.85;2.95;
69736;PMS5003;60097;55.004;73.344;2022-09-09T11:55:39;18.48;2.70;
69736;PMS5003;60097;55.004;73.344;2022-09-09T11:58:14;22.95;3.22;
69736;PMS5003;60097;55.004;73.344;2022-09-09T12:00:46;44.55;4.25;
69736;PMS5003;60097;55.004;73.344;2022-09-09T12:03:34;16.30;3.25;
69736;PMS5003;60097;55.004;73.344;2022-09-09T12:06:12;12.88;2.67;
69736;PMS5003;60097;55.004;73.344;2022-09-09T12:09:13;5.43;2.38;
69736;PMS5003;60097;55.004;73.344;2022-09-09T12:11:46;8.52;2.53;
69736;PMS5003;60097;55.004;73.344;2022-09-09T12:19:40;5.85;2.63;
69736;PMS5003;60097;55.004;73.344;2022-09-09T12:22:11;5.82;2.33;
69736;PMS5003;60097;55.004;73.344;2022-09-09T12:27:44;8.88;2.70;
69736;PMS5003;60097;55.004;73.344;2022-09-09T12:30:17;12.25;2.50;
69736;PMS5003;60097;55.004;73.344;2022-09-09T12:32:46;19.75;2.67;
69736;PMS5003;60097;55.004;73.344;2022-09-09T12:35:20;11.07;3.03;
69736;PMS5003;60097;55.004;73.344;2022-09-09T12:37:51;9.77;2.60;
69736;PMS5003;60097;55.004;73.344;2022-09-09T12:40:28;7.25;3.20;
69736;PMS5003;60097;55.004;73.344;2022-09-09T12:42:58;10.80;3.13;
69736;PMS5003;60097;55.004;73.344;2022-09-09T12:45:31;23.52;3.53;
69736;PMS5003;60097;55.004;73.344;2022-09-09T12:48:08;17.33;4.28;
69736;PMS5003;60097;55.004;73.344;2022-09-09T12:50:38;13.95;5.55;
69736;PMS5003;60097;55.004;73.344;2022-09-09T12:56:22;28.42;7.88;
69736;PMS5003;60097;55.004;73.344;2022-09-09T12:58:57;33.65;9.48;
69736;PMS5003;60097;55.004;73.344;2022-09-09T13:01:26;22.75;9.88;
69736;PMS5003;60097;55.004;73.344;2022-09-09T13:07:38;25.10;10.50;
69736;PMS5003;60097;55.004;73.344;2022-09-09T13:10:12;26.77;10.80;
69736;PMS5003;60097;55.004;73.344;2022-09-09T13:12:43;16.02;10.32;
69736;PMS5003;60097;55.004;73.344;2022-09-09T13:15:14;31.00;10.83;
69736;PMS5003;60097;55.004;73.344;2022-09-09T13:20:47;28.95;10.73;
69736;PMS5003;60097;55.004;73.344;2022-09-09T13:23:14;22.75;9.32;
69736;PMS5003;60097;55.004;73.344;2022-09-09T13:25:41;23.77;7.97;
69736;PMS5003;60097;55.004;73.344;2022-09-09T13:28:25;29.27;8.90;
69736;PMS5003;60097;55.004;73.344;2022-09-09T13:30:57;17.25;7.40;
69736;PMS5003;60097;55.004;73.344;2022-09-09T13:33:29;11.52;6.45;
69736;PMS5003;60097;55.004;73.344;2022-09-09T13:35:58;11.88;5.70;
69736;PMS5003;60097;55.004;73.344;2022-09-09T13:38:29;7.82;5.63;
69736;PMS5003;60097;55.004;73.344;2022-09-09T13:40:58;14.73;5.97;
69736;PMS5003;60097;55.004;73.344;2022-09-09T13:43:38;11.85;5.32;
69736;PMS5003;60097;55.004;73.344;2022-09-09T13:51:48;24.50;5.28;
69736;PMS5003;60097;55.004;73.344;2022-09-09T13:54:17;21.75;4.60;
69736;PMS5003;60097;55.004;73.344;2022-09-09T13:56:48;8.88;4.28;
69736;PMS5003;60097;55.004;73.344;2022-09-09T13:59:16;16.88;4.22;
69736;PMS5003;60097;55.004;73.344;2022-09-09T14:01:46;20.75;4.78;
69736;PMS5003;60097;55.004;73.344;2022-09-09T14:04:19;13.25;4.40;
69736;PMS5003;60097;55.004;73.344;2022-09-09T14:06:49;7.80;4.50;
69736;PMS5003;60097;55.004;73.344;2022-09-09T14:09:22;12.88;4.72;
69736;PMS5003;60097;55.004;73.344;2022-09-09T14:11:51;14.03;4.83;
69736;PMS5003;60097;55.004;73.344;2022-09-09T14:14:19;27.33;4.40;
69736;PMS5003;60097;55.004;73.344;2022-09-09T14:16:46;9.68;4.45;
69736;PMS5003;60097;55.004;73.344;2022-09-09T14:19:13;12.27;4.35;
69736;PMS5003;60097;55.004;73.344;2022-09-09T14:21:39;27.27;5.55;
69736;PMS5003;60097;55.004;73.344;2022-09-09T14:24:10;18.48;5.88;
69736;PMS5003;60097;55.004;73.344;2022-09-09T14:26:38;22.95;4.68;
69736;PMS5003;60097;55.004;73.344;2022-09-09T14:29:12;15.38;5.22;
69736;PMS5003;60097;55.004;73.344;2022-09-09T14:31:42;12.73;4.77;
69736;PMS5003;60097;55.004;73.344;2022-09-09T14:34:19;20.60;6.30;
69736;PMS5003;60097;55.004;73.344;2022-09-09T14:36:45;22.20;5.95;
69736;PMS5003;60097;55.004;73.344;2022-09-09T14:39:12;16.35;5.65;
69736;PMS5003;60097;55.004;73.344;2022-09-09T14:41:39;8.65;4.68;
69736;PMS5003;60097;55.004;73.344;2022-09-09T14:44:07;24.83;5.00;
69736;PMS5003;60097;55.004;73.344;2022-09-09T14:46:36;18.55;4.30;
69736;PMS5003;60097;55.004;73.344;2022-09-09T14:49:13;17.17;5.05;
69736;PMS5003;60097;55.004;73.344;2022-09-09T14:51:49;15.60;4.97;
69736;PMS5003;60097;55.004;73.344;2022-09-09T14:54:20;16.08;5.50;
69736;PMS5003;60097;55.004;73.344;2022-09-09T14:56:58;14.73;6.05;
69736;PMS5003;60097;55.004;73.344;2022-09-09T14:59:26;30.67;6.82;
69736;PMS5003;60097;55.004;73.344;2022-09-09T15:02:25;29.85;6.38;
69736;PMS5003;60097;55.004;73.344;2022-09-09T15:05:04;54.80;5.97;
69736;PMS5003;60097;55.004;73.344;2022-09-09T15:07:31;23.08;6.03;
69736;PMS5003;60097;55.004;73.344;2022-09-09T15:13:02;16.08;5.40;
69736;PMS5003;60097;55.004;73.344;2022-09-09T15:15:37;30.55;5.30;
69736;PMS5003;60097;55.004;73.344;2022-09-09T15:18:09;18.80;5.57;
69736;PMS5003;60097;55.004;73.344;2022-09-09T15:20:46;32.13;7.40;
69736;PMS5003;60097;55.004;73.344;2022-09-09T15:23:15;37.60;8.35;
69736;PMS5003;60097;55.004;73.344;2022-09-09T15:25:53;38.45;9.23;
69736;PMS5003;60097;55.004;73.344;2022-09-09T15:28:21;20.70;7.65;
69736;PMS5003;60097;55.004;73.344;2022-09-09T15:30:50;23.98;7.97;
69736;PMS5003;60097;55.004;73.344;2022-09-09T15:33:21;22.80;7.40;
69736;PMS5003;60097;55.004;73.344;2022-09-09T15:35:48;37.85;8.85;
69736;PMS5003;60097;55.004;73.344;2022-09-09T15:38:15;18.48;6.97;
69736;PMS5003;60097;55.004;73.344;2022-09-09T15:40:43;24.30;7.60;
69736;PMS5003;60097;55.004;73.344;2022-09-09T15:43:14;30.00;7.50;
69736;PMS5003;60097;55.004;73.344;2022-09-09T15:45:41;21.55;6.85;
69736;PMS5003;60097;55.004;73.344;2022-09-09T15:48:09;32.55;10.82;
69736;PMS5003;60097;55.004;73.344;2022-09-09T15:50:37;16.90;7.45;
69736;PMS5003;60097;55.004;73.344;2022-09-09T15:53:03;26.33;7.78;
69736;PMS5003;60097;55.004;73.344;2022-09-09T15:55:36;25.65;6.50;
69736;PMS5003;60097;55.004;73.344;2022-09-09T16:01:05;35.97;8.65;
69736;PMS5003;60097;55.004;73.344;2022-09-09T16:03:37;33.45;8.27;
69736;PMS5003;60097;55.004;73.344;2022-09-09T16:06:12;58.38;10.38;
69736;PMS5003;60097;55.004;73.344;2022-09-09T16:08:45;25.52;9.15;
69736;PMS5003;60097;55.004;73.344;2022-09-09T16:11:29;44.75;11.35;
69736;PMS5003;60097;55.004;73.344;2022-09-09T16:14:08;45.90;11.10;
69736;PMS5003;60097;55.004;73.344;2022-09-09T16:16:40;35.72;11.57;
69736;PMS5003;60097;55.004;73.344;2022-09-09T16:19:11;41.42;11.60;
69736;PMS5003;60097;55.004;73.344;2022-09-09T16:21:40;36.40;10.43;
69736;PMS5003;60097;55.004;73.344;2022-09-09T16:24:11;46.72;11.15;
69736;PMS5003;60097;55.004;73.344;2022-09-09T16:26:52;47.92;11.95;
69736;PMS5003;60097;55.004;73.344;2022-09-09T16:29:29;35.25;9.95;
69736;PMS5003;60097;55.004;73.344;2022-09-09T16:31:57;35.80;10.50;
69736;PMS5003;60097;55.004;73.344;2022-09-09T16:34:25;57.55;15.52;
69736;PMS5003;60097;55.004;73.344;2022-09-09T16:37:01;66.00;19.15;
69736;PMS5003;60097;55.004;73.344;2022-09-09T16:39:40;36.20;12.20;
69736;PMS5003;60097;55.004;73.344;2022-09-09T16:42:07;48.33;14.27;
69736;PMS5003;60097;55.004;73.344;2022-09-09T16:44:40;65.68;21.33;
69736;PMS5003;60097;55.004;73.344;2022-09-09T16:47:14;65.22;20.60;
69736;PMS5003;60097;55.004;73.344;2022-09-09T16:49:41;52.30;25.00;
69736;PMS5003;60097;55.004;73.344;2022-09-09T16:52:08;41.90;14.68;
69736;PMS5003;60097;55.004;73.344;2022-09-09T16:54:34;55.85;16.20;
69736;PMS5003;60097;55.004;73.344;2022-09-09T16:57:05;55.17;20.75;
69736;PMS5003;60097;55.004;73.344;2022-09-09T16:59:32;45.38;19.48;
69736;PMS5003;60097;55.004;73.344;2022-09-09T17:02:00;56.95;20.52;
69736;PMS5003;60097;55.004;73.344;2022-09-09T17:04:31;49.67;17.63;
69736;PMS5003;60097;55.004;73.344;2022-09-09T17:06:58;60.80;16.15;
69736;PMS5003;60097;55.004;73.344;2022-09-09T17:09:26;47.35;14.40;
69736;PMS5003;60097;55.004;73.344;2022-09-09T17:11:54;45.55;20.60;
69736;PMS5003;60097;55.004;73.344;2022-09-09T17:14:27;74.38;30.08;
69736;PMS5003;60097;55.004;73.344;2022-09-09T17:16:59;70.20;28.40;
69736;PMS5003;60097;55.004;73.344;2022-09-09T17:19:30;74.13;31.45;
69736;PMS5003;60097;55.004;73.344;2022-09-09T17:21:57;112.93;31.80;
69736;PMS5003;60097;55.004;73.344;2022-09-09T17:24:25;118.20;47.25;
69736;PMS5003;60097;55.004;73.344;2022-09-09T17:26:54;97.22;43.50;
69736;PMS5003;60097;55.004;73.344;2022-09-09T17:29:21;96.03;45.85;
69736;PMS5003;60097;55.004;73.344;2022-09-09T17:31:48;80.00;40.13;
69736;PMS5003;60097;55.004;73.344;2022-09-09T17:34:20;86.82;41.25;
69736;PMS5003;60097;55.004;73.344;2022-09-09T17:36:51;97.60;35.73;
69736;PMS5003;60097;55.004;73.344;2022-09-09T17:39:23;86.80;43.75;
69736;PMS5003;60097;55.004;73.344;2022-09-09T17:41:55;84.45;42.42;
69736;PMS5003;60097;55.004;73.344;2022-09-09T17:44:31;122.85;58.50;
69736;PMS5003;60097;55.004;73.344;2022-09-09T17:46:57;104.95;42.60;
69736;PMS5003;60097;55.004;73.344;2022-09-09T17:49:28;85.22;45.95;
69736;PMS5003;60097;55.004;73.344;2022-09-09T17:51:54;113.65;49.72;
69736;PMS5003;60097;55.004;73.344;2022-09-09T17:54:21;135.07;57.45;
69736;PMS5003;60097;55.004;73.344;2022-09-09T17:56:53;117.40;52.33;
69736;PMS5003;60097;55.004;73.344;2022-09-09T17:59:27;91.53;41.42;
69736;PMS5003;60097;55.004;73.344;2022-09-09T18:01:55;77.53;36.70;
69736;PMS5003;60097;55.004;73.344;2022-09-09T18:06:54;64.85;27.05;
69736;PMS5003;60097;55.004;73.344;2022-09-09T18:09:26;60.13;29.80;
69736;PMS5003;60097;55.004;73.344;2022-09-09T18:11:54;101.82;35.53;
69736;PMS5003;60097;55.004;73.344;2022-09-09T18:14:28;76.25;30.58;
69736;PMS5003;60097;55.004;73.344;2022-09-09T18:16:56;60.17;33.30;
69736;PMS5003;60097;55.004;73.344;2022-09-09T18:19:27;49.08;24.73;
69736;PMS5003;60097;55.004;73.344;2022-09-09T18:21:55;57.70;24.33;
69736;PMS5003;60097;55.004;73.344;2022-09-09T18:24:22;51.15;23.08;
69736;PMS5003;60097;55.004;73.344;2022-09-09T18:26:50;63.53;29.23;
69736;PMS5003;60097;55.004;73.344;2022-09-09T18:29:18;48.05;27.73;
69736;PMS5003;60097;55.004;73.344;2022-09-09T18:32:16;65.18;31.13;
69736;PMS5003;60097;55.004;73.344;2022-09-09T18:34:44;80.47;29.25;
69736;PMS5003;60097;55.004;73.344;2022-09-09T18:37:11;94.60;30.98;
69736;PMS5003;60097;55.004;73.344;2022-09-09T18:39:38;54.05;26.85;
69736;PMS5003;60097;55.004;73.344;2022-09-09T18:42:14;51.13;24.67;
69736;PMS5003;60097;55.004;73.344;2022-09-09T18:44:44;58.53;25.00;
69736;PMS5003;60097;55.004;73.344;2022-09-09T18:47:13;45.93;25.03;
69736;PMS5003;60097;55.004;73.344;2022-09-09T18:49:39;67.28;25.02;
69736;PMS5003;60097;55.004;73.344;2022-09-09T18:52:09;58.55;25.70;
69736;PMS5003;60097;55.004;73.344;2022-09-09T18:54:36;70.55;27.45;
69736;PMS5003;60097;55.004;73.344;2022-09-09T18:57:02;64.53;28.95;
69736;PMS5003;60097;55.004;73.344;2022-09-09T18:59:29;68.18;30.48;
69736;PMS5003;60097;55.004;73.344;2022-09-09T19:01:56;82.28;33.33;